Time;durP1;ratioP1;P1;durP2;ratioP2;P2;SDS_P1;SDS_P2;PMS_P1;PMS_P2;Temp;Humidity;BMP_temperature;BMP_pressure;BME280_temperature;BME280_humidity;BME280_pressure;Samples;Min_cycle;Max_cycle;Signal;HPM_P1;HPM_P2
2023/04/04 10:11:01;;;;;;;2.70;1.43;;;;;;;;;;5053389;27;20305;-75
2023/04/04 10:13:34;;;;;;;2.73;1.57;;;;;;;;;;5027703;28;20227;-77
2023/04/04 10:16:01;;;;;;;4.67;1.50;;;;;;;;;;4991738;28;20234;-75
2023/04/04 10:18:33;;;;;;;1.83;1.10;;;;;;;;;;4993654;28;20215;-75
2023/04/04 10:21:01;;;;;;;2.73;1.30;;;;;;;;;;5006397;28;20220;-76
2023/04/04 10:23:27;;;;;;;2.00;1.13;;;;;;;;;;5012267;28;20300;-77
2023/04/04 10:25:58;;;;;;;2.80;1.50;;;;;;;;;;4976207;28;20222;-77
2023/04/04 10:28:25;;;;;;;1.60;1.20;;;;;;;;;;5007609;28;20578;-75
2023/04/04 10:31:03;;;;;;;2.37;1.30;;;;;;;;;;4977948;28;20228;-76
2023/04/04 10:33:38;;;;;;;2.33;1.00;;;;;;;;;;5044302;28;20711;-76
2023/04/04 10:36:06;;;;;;;2.27;1.20;;;;;;;;;;5014877;28;20223;-77
2023/04/04 10:38:39;;;;;;;2.80;1.30;;;;;;;;;;4994214;28;20304;-77
2023/04/04 10:41:06;;;;;;;2.57;1.40;;;;;;;;;;4982201;28;20312;-75
2023/04/04 10:43:34;;;;;;;2.93;1.30;;;;;;;;;;4989817;28;20220;-77
2023/04/04 10:46:09;;;;;;;2.07;1.20;;;;;;;;;;5008579;28;20359;-77
2023/04/04 10:48:37;;;;;;;1.60;1.10;;;;;;;;;;5006563;28;20222;-76
2023/04/04 10:51:06;;;;;;;1.83;1.00;;;;;;;;;;5007698;28;20319;-76
2023/04/04 10:53:37;;;;;;;2.23;1.20;;;;;;;;;;5007607;28;20214;-74
2023/04/04 10:56:07;;;;;;;1.50;1.10;;;;;;;;;;5007768;28;20271;-77
2023/04/04 10:58:41;;;;;;;2.57;1.30;;;;;;;;;;4988734;28;20567;-76
2023/04/04 11:01:09;;;;;;;2.93;1.20;;;;;;;;;;5015513;28;20239;-74
2023/04/04 11:04:12;;;;;;;3.03;1.00;;;;;;;;;;5015299;28;20260;-75
2023/04/04 11:07:05;;;;;;;1.83;1.33;;;;;;;;;;5028743;28;20240;-76
2023/04/04 11:09:47;;;;;;;1.40;1.07;;;;;;;;;;4993363;28;20324;-75
2023/04/04 11:12:18;;;;;;;1.30;1.00;;;;;;;;;;5010692;28;20226;-77
2023/04/04 11:15:04;;;;;;;2.83;1.23;;;;;;;;;;5007678;28;20311;-76
2023/04/04 11:17:43;;;;;;;2.60;1.67;;;;;;;;;;5024985;28;20674;-73
2023/04/04 11:20:09;;;;;;;1.90;1.20;;;;;;;;;;5010744;28;20290;-75
2023/04/04 11:22:38;;;;;;;3.57;1.10;;;;;;;;;;5001381;28;20204;-74
2023/04/04 11:25:40;;;;;;;2.57;1.33;;;;;;;;;;5000213;28;20232;-74
2023/04/04 11:28:26;;;;;;;2.50;1.10;;;;;;;;;;4993922;28;20253;-74
2023/04/04 11:31:17;;;;;;;2.33;1.03;;;;;;;;;;4996313;28;20713;-74
2023/04/04 11:34:07;;;;;;;1.73;1.00;;;;;;;;;;5015966;28;20217;-74
2023/04/04 11:36:35;;;;;;;1.47;0.87;;;;;;;;;;5011438;28;20216;-75
2023/04/04 11:39:18;;;;;;;1.90;1.10;;;;;;;;;;5016751;28;20267;-73
2023/04/04 11:42:17;;;;;;;1.57;1.20;;;;;;;;;;5000694;28;20228;-74
2023/04/04 11:44:54;;;;;;;1.93;0.93;;;;;;;;;;5002559;28;20224;-73
2023/04/04 11:47:25;;;;;;;2.57;1.20;;;;;;;;;;5010212;28;20228;-74
2023/04/04 11:49:54;;;;;;;1.27;1.03;;;;;;;;;;5004171;28;20228;-75
2023/04/04 11:52:24;;;;;;;3.10;1.27;;;;;;;;;;4996001;28;20300;-73
2023/04/04 11:54:49;;;;;;;1.37;1.00;;;;;;;;;;4976362;28;20262;-75
2023/04/04 11:57:20;;;;;;;3.17;1.30;;;;;;;;;;4960842;28;20235;-75
2023/04/04 11:59:46;;;;;;;1.73;1.10;;;;;;;;;;4975253;28;20818;-75
2023/04/04 12:02:20;;;;;;;3.33;1.10;;;;;;;;;;4977716;28;20221;-76
2023/04/04 12:04:46;;;;;;;2.13;1.00;;;;;;;;;;4964886;28;20428;-76
2023/04/04 12:07:17;;;;;;;2.30;1.00;;;;;;;;;;4962345;28;20703;-74
2023/04/04 12:09:42;;;;;;;1.07;0.80;;;;;;;;;;4960207;28;20221;-75
2023/04/04 12:12:19;;;;;;;1.27;1.00;;;;;;;;;;4950848;28;20678;-77
2023/04/04 12:14:52;;;;;;;2.07;1.00;;;;;;;;;;4973806;28;20217;-77
2023/04/04 12:17:17;;;;;;;1.93;0.90;;;;;;;;;;4960503;28;20217;-77
2023/04/04 12:19:48;;;;;;;1.00;0.90;;;;;;;;;;4961234;28;20224;-76
2023/04/04 12:22:16;;;;;;;2.03;1.00;;;;;;;;;;4976257;28;20221;-76
2023/04/04 12:24:44;;;;;;;1.27;0.90;;;;;;;;;;4999708;28;20304;-76
2023/04/04 12:27:10;;;;;;;1.27;0.90;;;;;;;;;;4952758;28;20616;-76
2023/04/04 12:29:36;;;;;;;0.90;0.80;;;;;;;;;;4960269;28;20232;-75
2023/04/04 12:32:04;;;;;;;3.77;1.10;;;;;;;;;;4960034;28;20225;-75
2023/04/04 12:34:34;;;;;;;0.87;0.70;;;;;;;;;;4996701;28;20239;-74
2023/04/04 12:37:00;;;;;;;2.33;0.87;;;;;;;;;;4966136;28;20254;-78
2023/04/04 12:39:26;;;;;;;2.30;0.90;;;;;;;;;;4966073;28;20700;-74
2023/04/04 12:42:00;;;;;;;1.43;0.90;;;;;;;;;;4990430;28;20221;-76
2023/04/04 12:44:38;;;;;;;1.70;1.30;;;;;;;;;;4985880;28;20225;-76
2023/04/04 12:47:07;;;;;;;1.80;1.00;;;;;;;;;;5006377;28;20232;-77
2023/04/04 12:49:48;;;;;;;2.43;1.10;;;;;;;;;;4984529;28;20220;-77
2023/04/04 12:52:19;;;;;;;2.77;0.93;;;;;;;;;;4964927;28;20229;-76
2023/04/04 12:54:47;;;;;;;1.30;0.97;;;;;;;;;;4992914;28;20239;-76
2023/04/04 12:57:19;;;;;;;1.47;0.90;;;;;;;;;;4984882;28;20598;-77
2023/04/04 12:59:48;;;;;;;1.50;0.80;;;;;;;;;;4994061;28;20212;-77
2023/04/04 13:02:17;;;;;;;1.47;1.10;;;;;;;;;;4995844;28;20585;-76
2023/04/04 13:04:55;;;;;;;1.70;1.00;;;;;;;;;;4993904;28;20453;-76
2023/04/04 13:07:24;;;;;;;1.10;0.87;;;;;;;;;;4967204;28;20228;-76
2023/04/04 13:09:54;;;;;;;1.70;0.90;;;;;;;;;;5010630;28;20233;-77
2023/04/04 13:12:19;;;;;;;2.30;1.03;;;;;;;;;;4975548;28;20277;-76
2023/04/04 13:15:06;;;;;;;2.50;1.07;;;;;;;;;;4994648;28;20208;-76
2023/04/04 13:17:41;;;;;;;2.80;1.30;;;;;;;;;;5007481;28;20224;-76
2023/04/04 13:20:09;;;;;;;1.57;0.90;;;;;;;;;;4998701;28;20232;-76
2023/04/04 13:22:36;;;;;;;1.80;1.03;;;;;;;;;;5012947;28;20224;-77
2023/04/04 13:25:07;;;;;;;1.13;0.90;;;;;;;;;;4995512;28;20924;-76
2023/04/04 13:27:32;;;;;;;1.97;0.97;;;;;;;;;;4997401;28;20216;-78
2023/04/04 13:30:00;;;;;;;1.00;0.67;;;;;;;;;;4977621;28;20655;-75
2023/04/04 13:32:25;;;;;;;1.30;1.10;;;;;;;;;;4960877;28;20329;-76
2023/04/04 13:34:56;;;;;;;1.77;0.90;;;;;;;;;;4977758;28;20220;-75
2023/04/04 13:37:21;;;;;;;1.17;0.90;;;;;;;;;;4976923;28;20221;-74
2023/04/04 13:39:47;;;;;;;1.20;0.90;;;;;;;;;;4992284;28;20228;-75
2023/04/04 13:42:14;;;;;;;1.30;1.10;;;;;;;;;;4978805;28;20221;-74
2023/04/04 13:44:42;;;;;;;1.47;1.00;;;;;;;;;;5001457;28;20228;-75
2023/04/04 13:47:10;;;;;;;1.80;1.60;;;;;;;;;;4957088;28;20588;-75
2023/04/04 13:49:38;;;;;;;2.03;0.73;;;;;;;;;;4980260;28;20253;-75
2023/04/04 13:52:04;;;;;;;3.07;1.00;;;;;;;;;;4994260;28;20362;-75
2023/04/04 13:54:31;;;;;;;0.90;0.80;;;;;;;;;;4978124;28;20220;-75
2023/04/04 13:56:57;;;;;;;1.67;0.80;;;;;;;;;;4959069;28;20217;-76
2023/04/04 13:59:23;;;;;;;1.67;1.10;;;;;;;;;;4995501;28;20248;-76
2023/04/04 14:01:51;;;;;;;1.90;0.80;;;;;;;;;;5001753;28;20218;-76
2023/04/04 14:04:19;;;;;;;1.97;0.90;;;;;;;;;;4982995;28;20216;-76
2023/04/04 14:06:48;;;;;;;1.43;1.10;;;;;;;;;;4963216;28;20229;-75
2023/04/04 14:09:18;;;;;;;1.23;0.80;;;;;;;;;;4980353;28;20710;-77
2023/04/04 14:11:46;;;;;;;1.23;0.80;;;;;;;;;;4989497;28;20225;-76
2023/04/04 14:14:13;;;;;;;1.33;0.70;;;;;;;;;;4990841;28;20777;-77
2023/04/04 14:16:39;;;;;;;1.30;0.90;;;;;;;;;;4992365;28;20236;-75
2023/04/04 14:19:05;;;;;;;1.23;0.67;;;;;;;;;;4988202;28;20728;-75
2023/04/04 14:21:31;;;;;;;1.53;0.90;;;;;;;;;;4990517;28;20228;-76
2023/04/04 14:23:56;;;;;;;1.33;0.90;;;;;;;;;;4977202;28;20213;-76
2023/04/04 14:26:26;;;;;;;2.87;1.10;;;;;;;;;;4998264;28;20229;-77
2023/04/04 14:28:52;;;;;;;1.50;1.00;;;;;;;;;;4983902;28;20309;-76
2023/04/04 14:31:20;;;;;;;2.40;0.80;;;;;;;;;;4981128;28;20217;-76
2023/04/04 14:33:48;;;;;;;1.00;0.90;;;;;;;;;;4974343;28;20225;-76
2023/04/04 14:36:14;;;;;;;1.23;0.80;;;;;;;;;;4970366;28;20213;-76
2023/04/04 14:38:42;;;;;;;1.50;1.00;;;;;;;;;;4958701;28;20256;-76
2023/04/04 14:41:07;;;;;;;1.10;0.90;;;;;;;;;;4974311;28;20594;-75
2023/04/04 14:43:36;;;;;;;3.20;1.00;;;;;;;;;;4973418;28;20710;-76
2023/04/04 14:46:04;;;;;;;1.00;0.83;;;;;;;;;;4990106;28;20309;-77
2023/04/04 14:48:30;;;;;;;1.40;0.90;;;;;;;;;;4973974;28;20580;-75
2023/04/04 14:50:57;;;;;;;2.20;0.80;;;;;;;;;;4979000;28;20715;-76
2023/04/04 14:53:26;;;;;;;1.23;1.00;;;;;;;;;;4961668;28;20280;-76
2023/04/04 14:55:54;;;;;;;1.23;0.90;;;;;;;;;;4959897;28;20302;-77
2023/04/04 14:58:20;;;;;;;0.83;0.70;;;;;;;;;;4990375;28;20236;-77
2023/04/04 15:00:48;;;;;;;2.83;0.97;;;;;;;;;;4964656;28;20218;-77
2023/04/04 15:03:14;;;;;;;0.87;0.80;;;;;;;;;;4993774;28;20221;-75
2023/04/04 15:05:44;;;;;;;1.83;0.90;;;;;;;;;;4964893;28;20228;-76
2023/04/04 15:08:12;;;;;;;1.30;0.90;;;;;;;;;;4976051;28;20221;-76
2023/04/04 15:10:40;;;;;;;1.03;0.80;;;;;;;;;;4961972;28;20694;-77
2023/04/04 15:13:09;;;;;;;1.03;0.77;;;;;;;;;;4966716;28;20312;-77
2023/04/04 15:15:40;;;;;;;1.50;0.93;;;;;;;;;;4978479;28;20222;-77
2023/04/04 15:18:05;;;;;;;1.50;0.90;;;;;;;;;;4993338;28;20225;-78
2023/04/04 15:20:37;;;;;;;1.30;0.77;;;;;;;;;;4992347;28;20222;-78
2023/04/04 15:23:03;;;;;;;1.67;1.00;;;;;;;;;;4961261;28;20737;-77
2023/04/04 15:25:30;;;;;;;1.27;0.80;;;;;;;;;;4978713;28;20225;-78
2023/04/04 15:28:02;;;;;;;1.20;1.00;;;;;;;;;;4990074;28;20213;-76
2023/04/04 15:30:32;;;;;;;1.50;0.93;;;;;;;;;;4996003;28;20229;-75
2023/04/04 15:32:59;;;;;;;1.43;1.00;;;;;;;;;;4977152;28;20356;-79
2023/04/04 15:35:25;;;;;;;2.27;1.17;;;;;;;;;;4977359;28;20295;-78
2023/04/04 15:37:50;;;;;;;2.13;1.20;;;;;;;;;;4983422;28;20248;-77
2023/04/04 15:40:16;;;;;;;1.77;1.00;;;;;;;;;;4973126;28;20226;-78
2023/04/04 15:42:43;;;;;;;1.80;1.30;;;;;;;;;;4959738;28;20291;-76
2023/04/04 15:45:09;;;;;;;1.97;0.90;;;;;;;;;;4987244;28;20225;-75
2023/04/04 15:47:35;;;;;;;2.00;1.10;;;;;;;;;;4976376;28;20225;-77
2023/04/04 15:50:02;;;;;;;2.10;1.03;;;;;;;;;;4975470;28;20292;-75
2023/04/04 15:52:31;;;;;;;1.47;1.03;;;;;;;;;;4995057;28;20224;-75
2023/04/04 15:55:01;;;;;;;2.17;0.97;;;;;;;;;;4980548;28;20209;-76
2023/04/04 15:57:30;;;;;;;1.37;1.10;;;;;;;;;;4995749;28;20224;-76
2023/04/04 15:59:58;;;;;;;4.70;1.10;;;;;;;;;;4980605;28;20220;-77
2023/04/04 16:02:26;;;;;;;1.30;0.67;;;;;;;;;;4963306;28;20217;-78
2023/04/04 16:04:54;;;;;;;1.80;0.80;;;;;;;;;;4991088;28;20223;-73
2023/04/04 16:07:22;;;;;;;1.47;0.87;;;;;;;;;;5016855;28;20608;-72
2023/04/04 16:09:48;;;;;;;1.80;1.10;;;;;;;;;;4992341;28;20231;-78
2023/04/04 16:12:16;;;;;;;2.77;0.97;;;;;;;;;;4967176;28;20224;-76
2023/04/04 16:14:42;;;;;;;1.10;0.97;;;;;;;;;;5014411;28;20297;-79
2023/04/04 16:17:08;;;;;;;1.07;0.90;;;;;;;;;;4981661;28;20221;-74
2023/04/04 16:19:34;;;;;;;2.10;1.77;;;;;;;;;;4973499;28;20236;-73
2023/04/04 16:21:59;;;;;;;5.23;3.13;;;;;;;;;;5003267;28;20228;-70
2023/04/04 16:24:29;;;;;;;1.23;1.00;;;;;;;;;;4975500;28;20217;-73
2023/04/04 16:26:55;;;;;;;1.43;1.27;;;;;;;;;;4958289;28;20292;-72
2023/04/04 16:29:23;;;;;;;5.73;3.47;;;;;;;;;;4991995;28;20715;-70
2023/04/04 16:31:51;;;;;;;2.90;1.90;;;;;;;;;;4974132;28;20240;-73
2023/04/04 16:34:17;;;;;;;2.40;1.10;;;;;;;;;;4957024;28;20313;-73
2023/04/04 16:36:45;;;;;;;2.10;1.00;;;;;;;;;;4974716;28;20229;-75
2023/04/04 16:39:10;;;;;;;2.07;1.20;;;;;;;;;;4971163;28;20213;-77
2023/04/04 16:41:39;;;;;;;4.33;1.97;;;;;;;;;;4959007;28;20713;-73
2023/04/04 16:44:05;;;;;;;2.40;2.20;;;;;;;;;;4976625;28;20718;-73
2023/04/04 16:46:30;;;;;;;2.40;1.87;;;;;;;;;;4962303;28;20220;-74
2023/04/04 16:48:58;;;;;;;3.50;1.40;;;;;;;;;;4975752;28;20222;-74
2023/04/04 16:51:24;;;;;;;2.27;1.70;;;;;;;;;;4994333;28;20217;-74
2023/04/04 16:53:52;;;;;;;1.20;1.10;;;;;;;;;;4975381;28;20222;-78
2023/04/04 16:56:24;;;;;;;2.20;1.20;;;;;;;;;;4992333;28;20308;-77
2023/04/04 16:58:49;;;;;;;3.80;1.40;;;;;;;;;;4974183;28;20218;-74
2023/04/04 17:01:21;;;;;;;2.10;1.30;;;;;;;;;;4976833;28;20221;-76
2023/04/04 17:03:47;;;;;;;2.20;1.30;;;;;;;;;;4991040;28;20205;-77
2023/04/04 17:06:15;;;;;;;2.93;1.40;;;;;;;;;;4956710;28;20224;-76
2023/04/04 17:08:42;;;;;;;1.43;1.20;;;;;;;;;;4973826;28;20304;-79
2023/04/04 17:11:08;;;;;;;2.03;1.40;;;;;;;;;;4965672;28;20264;-76
2023/04/04 17:13:34;;;;;;;2.63;1.53;;;;;;;;;;4994731;28;20224;-77
2023/04/04 17:16:07;;;;;;;2.17;1.40;;;;;;;;;;5010704;28;20228;-77
2023/04/04 17:18:34;;;;;;;3.13;1.70;;;;;;;;;;4991238;28;20225;-78
2023/04/04 17:21:00;;;;;;;2.67;1.80;;;;;;;;;;4963168;23;20230;-82
2023/04/04 17:23:25;;;;;;;2.53;1.57;;;;;;;;;;4929259;28;20230;-77
2023/04/04 17:25:51;;;;;;;3.17;1.57;;;;;;;;;;4951866;28;21057;-79
2023/04/04 17:28:20;;;;;;;1.90;1.27;;;;;;;;;;4978336;28;20234;-79
2023/04/04 17:30:45;;;;;;;1.77;1.23;;;;;;;;;;4973836;28;20237;-79
2023/04/04 17:33:13;;;;;;;1.60;1.23;;;;;;;;;;4957412;28;20655;-79
2023/04/04 17:35:38;;;;;;;0.80;0.80;;;;;;;;;;4965057;28;20229;-81
2023/04/04 17:38:04;;;;;;;2.77;1.03;;;;;;;;;;4977505;28;20227;-78
2023/04/04 17:40:35;;;;;;;2.57;1.10;;;;;;;;;;4974765;28;20227;-80
2023/04/04 17:43:00;;;;;;;1.23;0.90;;;;;;;;;;4968419;28;20226;-82
2023/04/04 17:45:26;;;;;;;2.97;1.40;;;;;;;;;;4960120;28;20229;-81
2023/04/04 17:47:52;;;;;;;3.17;1.00;;;;;;;;;;4974864;28;20664;-79
2023/04/04 17:50:18;;;;;;;4.00;1.10;;;;;;;;;;4976566;28;20234;-80
2023/04/04 17:52:46;;;;;;;2.67;1.30;;;;;;;;;;4978245;28;20234;-77
2023/04/04 17:55:16;;;;;;;3.23;1.30;;;;;;;;;;4974619;28;20226;-80
2023/04/04 17:57:46;;;;;;;3.73;1.30;;;;;;;;;;4935497;28;20233;-81
2023/04/04 18:00:15;;;;;;;1.47;1.30;;;;;;;;;;4926679;28;20301;-78
2023/04/04 18:02:43;;;;;;;1.57;1.20;;;;;;;;;;4947367;28;20779;-81
2023/04/04 18:05:14;;;;;;;15.03;12.83;;;;;;;;;;4955178;28;20590;-81
2023/04/04 18:07:42;;;;;;;2.17;1.87;;;;;;;;;;4944897;28;20624;-79
2023/04/04 18:10:10;;;;;;;4.00;2.70;;;;;;;;;;4963364;28;20223;-79
2023/04/04 18:12:38;;;;;;;5.40;2.20;;;;;;;;;;4970122;28;20743;-81
2023/04/04 18:15:05;;;;;;;2.20;2.00;;;;;;;;;;4976316;28;20273;-81
2023/04/04 18:17:32;;;;;;;4.20;1.77;;;;;;;;;;4980768;28;20229;-79
2023/04/04 18:20:02;;;;;;;1.40;1.30;;;;;;;;;;4951623;28;20879;-82
2023/04/04 18:22:28;;;;;;;2.80;2.17;;;;;;;;;;4975157;28;20234;-82
2023/04/04 18:24:53;;;;;;;3.60;1.80;;;;;;;;;;4950398;28;20222;-81
2023/04/04 18:27:19;;;;;;;2.57;1.90;;;;;;;;;;4965193;28;20269;-78
2023/04/04 18:29:44;;;;;;;2.50;2.10;;;;;;;;;;4966920;28;20760;-81
2023/04/04 18:32:12;;;;;;;2.43;1.60;;;;;;;;;;4968586;28;20241;-79
2023/04/04 18:34:38;;;;;;;2.80;1.83;;;;;;;;;;4973677;28;20332;-82
2023/04/04 18:37:05;;;;;;;3.53;2.90;;;;;;;;;;4969680;28;20259;-77
2023/04/04 18:39:32;;;;;;;3.03;2.00;;;;;;;;;;4967547;28;20261;-80
2023/04/04 18:42:01;;;;;;;5.80;3.83;;;;;;;;;;4976908;28;20214;-81
2023/04/04 18:44:30;;;;;;;9.27;8.27;;;;;;;;;;4970032;28;20226;-80
2023/04/04 18:47:01;;;;;;;4.57;2.90;;;;;;;;;;4992921;28;20233;-80
2023/04/04 18:49:29;;;;;;;3.47;2.40;;;;;;;;;;4977688;28;20231;-81
2023/04/04 18:51:57;;;;;;;2.60;1.70;;;;;;;;;;4987400;28;20240;-80
2023/04/04 18:54:23;;;;;;;3.70;2.00;;;;;;;;;;4952266;28;20226;-79
2023/04/04 18:56:48;;;;;;;3.00;2.30;;;;;;;;;;4986723;28;20242;-79
2023/04/04 18:59:17;;;;;;;2.07;1.30;;;;;;;;;;4975275;28;20235;-78
2023/04/04 19:01:45;;;;;;;2.80;1.27;;;;;;;;;;4964322;28;20226;-78
2023/04/04 19:04:11;;;;;;;2.70;1.37;;;;;;;;;;4976856;28;20211;-79
2023/04/04 19:06:39;;;;;;;1.70;0.87;;;;;;;;;;4973936;28;20225;-79
2023/04/04 19:09:04;;;;;;;1.63;1.00;;;;;;;;;;4961393;28;20226;-78
2023/04/04 19:11:30;;;;;;;7.47;5.47;;;;;;;;;;4973866;28;20751;-79
2023/04/04 19:13:58;;;;;;;20.03;14.03;;;;;;;;;;4978072;28;20595;-81
2023/04/04 19:16:27;;;;;;;18.50;15.33;;;;;;;;;;4971913;28;20230;-82
2023/04/04 19:18:55;;;;;;;15.43;12.67;;;;;;;;;;4982315;28;20214;-81
2023/04/04 19:21:27;;;;;;;8.33;5.10;;;;;;;;;;4956094;28;20222;-80
2023/04/04 19:23:53;;;;;;;2.87;2.10;;;;;;;;;;4952878;28;20787;-81
2023/04/04 19:26:18;;;;;;;2.93;1.20;;;;;;;;;;4966304;28;20219;-80
2023/04/04 19:28:46;;;;;;;2.13;1.13;;;;;;;;;;4969992;28;20229;-80
2023/04/04 19:31:20;;;;;;;2.17;0.90;;;;;;;;;;4978772;28;20215;-81
2023/04/04 19:33:49;;;;;;;2.17;1.00;;;;;;;;;;4971918;28;20328;-82
2023/04/04 19:36:15;;;;;;;1.23;0.90;;;;;;;;;;4978102;28;20684;-81
2023/04/04 19:38:44;;;;;;;2.07;0.87;;;;;;;;;;4968595;28;20289;-78
2023/04/04 19:41:17;;;;;;;2.27;1.47;;;;;;;;;;4984184;28;20658;-80
2023/04/04 19:43:45;;;;;;;3.20;1.80;;;;;;;;;;4980702;28;20233;-79
2023/04/04 19:46:15;;;;;;;2.40;1.90;;;;;;;;;;4969811;28;20235;-81
2023/04/04 19:48:47;;;;;;;3.87;2.20;;;;;;;;;;4954392;28;20246;-80
2023/04/04 19:51:15;;;;;;;1.57;1.17;;;;;;;;;;4974190;28;20222;-81
2023/04/04 19:53:49;;;;;;;1.80;1.60;;;;;;;;;;4970405;28;20285;-81
2023/04/04 19:56:17;;;;;;;1.43;1.27;;;;;;;;;;4967283;28;20278;-81
2023/04/04 19:58:47;;;;;;;1.43;1.20;;;;;;;;;;4955685;28;20231;-81
2023/04/04 20:01:17;;;;;;;1.30;1.00;;;;;;;;;;4972069;28;20274;-83
2023/04/04 20:03:43;;;;;;;1.80;1.20;;;;;;;;;;4972765;28;20362;-80
2023/04/04 20:06:08;;;;;;;4.37;1.10;;;;;;;;;;4955169;28;20226;-81
2023/04/04 20:08:37;;;;;;;2.03;1.00;;;;;;;;;;4981041;28;20234;-82
2023/04/04 20:11:04;;;;;;;1.00;0.93;;;;;;;;;;4973691;28;20332;-80
2023/04/04 20:13:31;;;;;;;1.93;1.10;;;;;;;;;;4983614;28;20302;-82
2023/04/04 20:16:02;;;;;;;1.67;1.00;;;;;;;;;;4987021;28;20222;-82
2023/04/04 20:18:30;;;;;;;1.17;0.80;;;;;;;;;;4957916;28;20238;-80
2023/04/04 20:20:58;;;;;;;2.57;1.20;;;;;;;;;;4973482;28;20791;-80
2023/04/04 20:23:29;;;;;;;1.47;0.97;;;;;;;;;;4984238;28;20253;-82
2023/04/04 20:26:07;;;;;;;1.90;1.30;;;;;;;;;;4958466;28;20330;-82
2023/04/04 20:28:32;;;;;;;2.37;1.60;;;;;;;;;;4950308;28;20230;-82
2023/04/04 20:31:07;;;;;;;2.13;1.80;;;;;;;;;;4977429;28;20258;-82
2023/04/04 20:33:36;;;;;;;2.00;1.30;;;;;;;;;;4947189;28;20227;-82
2023/04/04 20:36:06;;;;;;;3.57;1.40;;;;;;;;;;4985777;28;20226;-81
2023/04/04 20:38:32;;;;;;;2.43;1.20;;;;;;;;;;4989336;28;20233;-81
2023/04/04 20:40:58;;;;;;;1.87;1.20;;;;;;;;;;4989860;28;20227;-81
2023/04/04 20:43:27;;;;;;;1.73;1.50;;;;;;;;;;4990738;28;20222;-82
2023/04/04 20:45:55;;;;;;;1.37;1.27;;;;;;;;;;4982153;28;20240;-80
2023/04/04 20:48:38;;;;;;;2.00;1.50;;;;;;;;;;4986808;28;20222;-80
2023/04/04 20:51:17;;;;;;;2.20;1.10;;;;;;;;;;4985616;28;20281;-80
2023/04/04 20:53:45;;;;;;;1.37;1.00;;;;;;;;;;4980229;28;20252;-82
2023/04/04 20:56:42;;;;;;;1.40;1.00;;;;;;;;;;4992218;28;20229;-82
2023/04/04 20:59:35;;;;;;;2.47;1.20;;;;;;;;;;4981311;28;20222;-82
2023/04/04 21:02:22;;;;;;;1.87;1.00;;;;;;;;;;4983689;28;20361;-82
2023/04/04 21:04:50;;;;;;;2.13;1.07;;;;;;;;;;4963681;28;20290;-82
2023/04/04 21:07:41;;;;;;;2.47;1.20;;;;;;;;;;4976558;28;20991;-82
2023/04/04 21:10:28;;;;;;;1.87;1.10;;;;;;;;;;4989748;28;20232;-82
2023/04/04 21:12:55;;;;;;;5.40;1.27;;;;;;;;;;4989990;28;20254;-81
2023/04/04 21:15:28;;;;;;;1.87;1.30;;;;;;;;;;4988585;28;20246;-82
2023/04/04 21:18:00;;;;;;;2.43;1.13;;;;;;;;;;4961795;28;20230;-80
2023/04/04 21:20:43;;;;;;;1.60;1.40;;;;;;;;;;4964706;28;20265;-80
2023/04/04 21:23:26;;;;;;;2.20;1.60;;;;;;;;;;4989034;28;20299;-81
2023/04/04 21:26:31;;;;;;;4.37;2.90;;;;;;;;;;4991327;28;20257;-81
2023/04/04 21:29:01;;;;;;;3.70;1.83;;;;;;;;;;4961207;28;20290;-81
2023/04/04 21:31:38;;;;;;;2.57;1.33;;;;;;;;;;4993817;28;20227;-81
2023/04/04 21:34:16;;;;;;;1.47;1.20;;;;;;;;;;4982321;28;20214;-81
2023/04/04 21:36:47;;;;;;;3.13;1.73;;;;;;;;;;4996635;28;20234;-81
2023/04/04 21:39:13;;;;;;;3.10;1.50;;;;;;;;;;4963368;28;20225;-81
2023/04/04 21:41:39;;;;;;;1.77;1.10;;;;;;;;;;4985383;28;20226;-81
2023/04/04 21:44:06;;;;;;;2.27;1.30;;;;;;;;;;4977070;28;20237;-81
2023/04/04 21:46:33;;;;;;;3.27;1.30;;;;;;;;;;4984981;28;20226;-81
2023/04/04 21:48:58;;;;;;;2.03;1.23;;;;;;;;;;4992773;28;20297;-81
2023/04/04 21:51:25;;;;;;;1.93;1.30;;;;;;;;;;4984593;28;20274;-82
2023/04/04 21:53:50;;;;;;;1.87;1.33;;;;;;;;;;4979339;28;20254;-83
2023/04/04 21:56:16;;;;;;;2.40;1.30;;;;;;;;;;4977262;28;20218;-82
2023/04/04 21:58:42;;;;;;;2.37;1.23;;;;;;;;;;4994004;28;20241;-83
2023/04/04 22:01:10;;;;;;;2.87;1.40;;;;;;;;;;4994123;28;20685;-83
2023/04/04 22:03:38;;;;;;;1.63;1.10;;;;;;;;;;4963397;28;20226;-82
2023/04/04 22:06:04;;;;;;;2.07;1.47;;;;;;;;;;4978717;28;20229;-82
2023/04/04 22:08:30;;;;;;;1.67;1.33;;;;;;;;;;4980650;28;20313;-82
2023/04/04 22:10:56;;;;;;;2.33;1.30;;;;;;;;;;4954232;28;21003;-82
2023/04/04 22:13:29;;;;;;;2.00;1.40;;;;;;;;;;4966402;28;20284;-81
2023/04/04 22:15:57;;;;;;;1.80;1.30;;;;;;;;;;4952139;28;20245;-81
2023/04/04 22:18:29;;;;;;;2.77;1.50;;;;;;;;;;4966882;28;20234;-80
2023/04/04 22:21:01;;;;;;;1.33;1.20;;;;;;;;;;4954737;28;20773;-80
2023/04/04 22:23:27;;;;;;;14.40;9.30;;;;;;;;;;4967774;28;20232;-82
2023/04/04 22:25:53;;;;;;;52.40;34.67;;;;;;;;;;4978415;28;20214;-81
2023/04/04 22:28:23;;;;;;;54.30;35.87;;;;;;;;;;4953466;28;20222;-82
2023/04/04 22:30:48;;;;;;;53.30;38.20;;;;;;;;;;4969915;28;20227;-82
2023/04/04 22:33:14;;;;;;;43.27;31.70;;;;;;;;;;4982904;28;20217;-82
2023/04/04 22:35:40;;;;;;;36.47;26.87;;;;;;;;;;4965056;28;20226;-81
2023/04/04 22:38:08;;;;;;;29.60;21.27;;;;;;;;;;4993741;28;20222;-81
2023/04/04 22:40:36;;;;;;;5.53;3.33;;;;;;;;;;4989642;28;20552;-81
2023/04/04 22:43:02;;;;;;;5.73;2.53;;;;;;;;;;4976286;28;20783;-81
2023/04/04 22:45:33;;;;;;;5.77;4.00;;;;;;;;;;4982125;28;20224;-81
2023/04/04 22:48:00;;;;;;;5.67;3.47;;;;;;;;;;4976280;28;20298;-81
2023/04/04 22:50:26;;;;;;;5.00;2.90;;;;;;;;;;4978139;28;20239;-81
2023/04/04 22:52:53;;;;;;;5.83;2.20;;;;;;;;;;4978950;28;20231;-80
2023/04/04 22:55:21;;;;;;;1.90;1.30;;;;;;;;;;4990711;28;20222;-82
2023/04/04 22:57:47;;;;;;;1.93;1.33;;;;;;;;;;4974986;28;20257;-81
2023/04/04 23:00:13;;;;;;;1.80;1.20;;;;;;;;;;4964225;28;20222;-81
2023/04/04 23:02:43;;;;;;;2.43;1.40;;;;;;;;;;4962871;28;20314;-81
2023/04/04 23:05:09;;;;;;;2.40;1.50;;;;;;;;;;4971983;28;20796;-80
2023/04/04 23:07:37;;;;;;;1.73;1.40;;;;;;;;;;4982656;28;20231;-81
2023/04/04 23:10:03;;;;;;;1.50;1.30;;;;;;;;;;4976261;28;20226;-81
2023/04/04 23:12:29;;;;;;;2.30;1.20;;;;;;;;;;4982070;28;20746;-81
2023/04/04 23:15:00;;;;;;;1.73;1.30;;;;;;;;;;4978389;28;20222;-81
2023/04/04 23:17:26;;;;;;;2.33;1.20;;;;;;;;;;4959422;28;20713;-81
2023/04/04 23:19:52;;;;;;;2.53;1.50;;;;;;;;;;4997770;28;20270;-81
2023/04/04 23:22:17;;;;;;;1.87;1.33;;;;;;;;;;4998376;28;20309;-81
2023/04/04 23:24:43;;;;;;;3.07;1.70;;;;;;;;;;4982655;28;20986;-79
2023/04/04 23:27:10;;;;;;;2.23;1.60;;;;;;;;;;4996947;28;20272;-80
2023/04/04 23:29:35;;;;;;;3.40;2.57;;;;;;;;;;4983282;28;20222;-79
2023/04/04 23:32:01;;;;;;;6.40;2.70;;;;;;;;;;4968904;28;20257;-79
2023/04/04 23:34:29;;;;;;;4.70;2.30;;;;;;;;;;4984820;28;20222;-80
2023/04/04 23:36:54;;;;;;;2.53;1.60;;;;;;;;;;4977125;28;20233;-81
2023/04/04 23:39:20;;;;;;;1.90;1.70;;;;;;;;;;4986457;28;20217;-81
2023/04/04 23:41:46;;;;;;;3.27;1.53;;;;;;;;;;4988779;28;20240;-81
2023/04/04 23:44:11;;;;;;;3.50;2.57;;;;;;;;;;4987560;28;20245;-81
2023/04/04 23:46:37;;;;;;;5.40;3.73;;;;;;;;;;4987639;28;20218;-81
2023/04/04 23:49:05;;;;;;;6.00;3.80;;;;;;;;;;4984380;28;20256;-81
2023/04/04 23:51:36;;;;;;;4.97;3.57;;;;;;;;;;4980495;28;20277;-81
2023/04/04 23:54:12;;;;;;;5.87;3.90;;;;;;;;;;4979540;28;20230;-81
2023/04/04 23:56:41;;;;;;;4.67;3.57;;;;;;;;;;4990891;28;20225;-81
2023/04/04 23:59:06;;;;;;;5.30;3.53;;;;;;;;;;4958231;28;20274;-81
